createdAt,value
2023-11-20T00:00:49.686Z,92857.56
2023-11-20T00:03:16.997Z,92863.69
2023-11-20T00:05:45.707Z,92862.16
2023-11-20T00:08:13.199Z,92851.38
2023-11-20T00:10:40.828Z,92846.41
2023-11-20T00:13:08.175Z,92837.56
2023-11-20T00:15:38.031Z,92844.88
2023-11-20T00:18:09.528Z,92849.00
2023-11-20T00:20:37.980Z,92844.06
2023-11-20T00:23:06.649Z,92850.94
2023-11-20T00:25:33.919Z,92847.16
2023-11-20T00:28:01.310Z,92843.31
2023-11-20T00:30:28.657Z,92851.75
2023-11-20T00:32:55.878Z,92837.22
2023-11-20T00:35:23.597Z,92839.88
2023-11-20T00:37:50.857Z,92843.72
2023-11-20T00:40:19.737Z,92837.56
2023-11-20T00:42:46.937Z,92832.56
2023-11-20T00:45:14.255Z,92837.19
2023-11-20T00:47:41.592Z,92832.97
2023-11-20T00:50:10.638Z,92839.09
2023-11-20T00:52:38.175Z,92840.25
2023-11-20T00:55:11.536Z,92831.81
2023-11-20T00:57:41.892Z,92832.59
2023-11-20T01:00:13.104Z,92824.16
2023-11-20T01:02:40.804Z,92821.84
2023-11-20T01:05:10.137Z,92823.41
2023-11-20T01:07:37.309Z,92820.69
2023-11-20T01:10:06.367Z,92831.06
2023-11-20T01:12:33.559Z,92828.00
2023-11-20T01:15:03.350Z,92821.47
2023-11-20T01:17:31.632Z,92826.84
2023-11-20T01:19:58.853Z,92817.66
2023-11-20T01:22:26.012Z,92812.25
2023-11-20T01:24:54.355Z,92812.28
2023-11-20T01:27:21.540Z,92821.47
2023-11-20T01:29:48.782Z,92824.19
2023-11-20T01:32:20.548Z,92803.06
2023-11-20T01:34:47.737Z,92828.00
2023-11-20T01:37:15.027Z,92816.50
2023-11-20T01:39:42.232Z,92822.22
2023-11-20T01:42:09.503Z,92810.72
2023-11-20T01:44:36.673Z,92814.56
2023-11-20T01:47:06.686Z,92811.50
2023-11-20T01:49:36.174Z,92804.22
2023-11-20T01:52:04.143Z,92810.72
2023-11-20T01:54:33.046Z,92803.44
2023-11-20T01:57:01.620Z,92801.91
2023-11-20T01:59:30.531Z,92803.44
2023-11-20T02:01:58.529Z,92801.53
2023-11-20T02:04:28.511Z,92806.91
2023-11-20T02:06:57.064Z,92806.50
2023-11-20T02:09:24.947Z,92798.44
2023-11-20T02:11:52.975Z,92803.06
2023-11-20T02:14:20.341Z,92802.66
2023-11-20T02:16:47.470Z,92800.75
2023-11-20T02:19:15.632Z,92806.88
2023-11-20T02:21:43.634Z,92808.44
2023-11-20T02:24:14.257Z,92806.13
2023-11-20T02:27:02.617Z,92800.38
2023-11-20T02:29:46.714Z,92805.38
2023-11-20T02:32:13.944Z,92803.81
2023-11-20T02:34:41.101Z,92796.94
2023-11-20T02:37:09.348Z,92801.88
2023-11-20T02:39:36.672Z,92800.75
2023-11-20T02:42:04.207Z,92793.81
2023-11-20T02:44:31.542Z,92793.81
2023-11-20T02:47:00.097Z,92803.81
2023-11-20T02:49:27.205Z,92796.53
2023-11-20T02:51:54.684Z,92797.31
2023-11-20T02:54:21.927Z,92803.06
2023-11-20T02:56:49.045Z,92787.31
2023-11-20T02:59:16.189Z,92788.84
2023-11-20T03:01:48.195Z,92785.41
2023-11-20T03:04:17.273Z,92790.78
2023-11-20T03:06:44.446Z,92785.78
2023-11-20T03:09:13.331Z,92776.97
2023-11-20T03:11:40.975Z,92773.88
2023-11-20T03:14:08.134Z,92781.91
2023-11-20T03:16:35.644Z,92791.53
2023-11-20T03:19:02.980Z,92790.41
2023-11-20T03:21:31.485Z,92789.22
2023-11-20T03:23:58.570Z,92786.91
2023-11-20T03:26:27.007Z,92798.06
2023-11-20T03:28:54.360Z,92791.56
2023-11-20T03:31:21.545Z,92781.19
2023-11-20T03:33:48.794Z,92785.78
2023-11-20T03:36:16.407Z,92787.31
2023-11-20T03:38:45.628Z,92775.41
2023-11-20T03:41:12.745Z,92783.84
2023-11-20T03:43:40.490Z,92776.56
2023-11-20T03:46:07.710Z,92785.75
2023-11-20T03:48:34.978Z,92785.41
2023-11-20T03:51:03.734Z,92783.06
2023-11-20T03:53:31.084Z,92783.88
2023-11-20T03:55:59.594Z,92781.16
2023-11-20T03:58:27.259Z,92780.38
2023-11-20T04:00:54.449Z,92781.56
2023-11-20T04:03:22.033Z,92774.63
2023-11-20T04:05:49.400Z,92766.19
2023-11-20T04:08:16.557Z,92779.22
2023-11-20T04:10:44.403Z,92778.06
2023-11-20T04:13:13.347Z,92778.47
2023-11-20T04:15:41.006Z,92775.38
2023-11-20T04:18:08.165Z,92788.47
2023-11-20T04:20:35.689Z,92783.47
2023-11-20T04:23:04.609Z,92782.28
2023-11-20T04:25:31.694Z,92775.38
2023-11-20T04:27:58.915Z,92774.25
2023-11-20T04:30:27.362Z,92782.31
2023-11-20T04:32:54.510Z,92782.69
2023-11-20T04:35:21.722Z,92774.63
2023-11-20T04:37:48.929Z,92781.94
2023-11-20T04:40:16.098Z,92773.09
2023-11-20T04:42:43.249Z,92774.63
2023-11-20T04:45:11.490Z,92764.66
2023-11-20T04:47:41.795Z,92777.72
2023-11-20T04:50:10.004Z,92780.00
2023-11-20T04:52:37.719Z,92776.94
2023-11-20T04:55:06.309Z,92763.47
2023-11-20T04:57:34.829Z,92771.94
2023-11-20T05:00:04.212Z,92760.03
2023-11-20T05:02:32.130Z,92762.34
2023-11-20T05:05:00.768Z,92767.72
2023-11-20T05:07:28.325Z,92760.81
2023-11-20T05:09:55.722Z,92759.25
2023-11-20T05:12:22.915Z,92767.72
2023-11-20T05:14:50.036Z,92760.06
2023-11-20T05:17:20.045Z,92766.56
2023-11-20T05:19:49.234Z,92740.47
2023-11-20T05:22:21.000Z,92769.25
2023-11-20T05:24:48.228Z,92758.50
2023-11-20T05:27:15.391Z,92760.06
2023-11-20T05:29:42.514Z,92753.91
2023-11-20T05:32:09.865Z,92753.50
2023-11-20T05:34:38.512Z,92763.50
2023-11-20T05:37:05.730Z,92762.34
2023-11-20T05:39:34.523Z,92765.81
2023-11-20T05:42:01.850Z,92755.06
2023-11-20T05:44:29.853Z,92758.50
2023-11-20T05:46:57.268Z,92766.19
2023-11-20T05:49:24.578Z,92765.81
2023-11-20T06:01:38.148Z,92762.75
2023-11-20T06:04:06.922Z,92763.09
2023-11-20T06:06:34.532Z,92760.03
2023-11-20T06:09:05.278Z,92766.19
2023-11-20T06:11:35.092Z,92756.19
2023-11-20T06:14:04.050Z,92756.22
2023-11-20T06:16:31.629Z,92768.88
2023-11-20T06:19:00.782Z,92771.16
2023-11-20T06:21:27.983Z,92747.75
2023-11-20T06:23:56.372Z,92760.81
2023-11-20T06:26:24.136Z,92763.88
2023-11-20T06:28:51.406Z,92758.50
2023-11-20T06:31:19.331Z,92775.00
2023-11-20T06:33:46.721Z,92774.25
2023-11-20T06:36:15.342Z,92787.31
2023-11-20T06:38:42.603Z,92772.31
2023-11-20T06:41:10.139Z,92775.38
2023-11-20T06:43:37.385Z,92775.38
2023-11-20T06:46:04.942Z,92782.69
2023-11-20T06:48:34.473Z,92780.00
2023-11-20T06:51:01.912Z,92776.16
2023-11-20T06:53:30.482Z,92787.28
2023-11-20T06:55:57.706Z,92783.84
2023-11-20T06:58:24.877Z,92767.72
2023-11-20T07:00:52.180Z,92785.38
2023-11-20T07:03:21.208Z,92783.81
2023-11-20T07:05:48.767Z,92778.47
2023-11-20T07:08:17.814Z,92770.75
2023-11-20T07:10:47.450Z,92778.44
2023-11-20T07:13:15.120Z,92769.63
2023-11-20T07:15:42.629Z,92767.69
2023-11-20T07:18:10.126Z,92774.63
2023-11-20T07:20:38.073Z,92764.25
2023-11-20T07:23:06.668Z,92768.47
2023-11-20T07:25:35.606Z,92775.38
2023-11-20T07:28:05.537Z,92770.75
2023-11-20T07:30:33.509Z,92782.28
2023-11-20T07:33:01.288Z,92768.47
2023-11-20T07:35:29.159Z,92784.97
2023-11-20T07:37:56.862Z,92786.09
2023-11-20T07:40:25.799Z,92789.94
2023-11-20T07:42:53.355Z,92789.94
2023-11-20T07:45:22.612Z,92782.28
2023-11-20T07:47:50.207Z,92791.09
2023-11-20T07:50:18.277Z,92787.97
2023-11-20T07:52:47.335Z,92792.56
2023-11-20T07:55:14.723Z,92800.28
2023-11-20T07:57:42.658Z,92796.47
2023-11-20T08:00:13.330Z,92793.00
2023-11-20T08:02:42.745Z,92799.53
2023-11-20T08:05:11.595Z,92793.00
2023-11-20T08:07:39.379Z,92790.31
2023-11-20T08:10:10.642Z,92803.00
2023-11-20T08:12:38.266Z,92794.56
2023-11-20T08:15:07.003Z,92792.25
2023-11-20T08:17:34.947Z,92795.69
2023-11-20T08:20:07.294Z,92796.09
2023-11-20T08:22:36.139Z,92802.22
2023-11-20T08:25:04.134Z,92806.84
2023-11-20T08:27:32.037Z,92801.47
2023-11-20T08:29:59.352Z,92810.28
2023-11-20T08:32:26.716Z,92809.91
2023-11-20T08:34:54.010Z,92801.41
2023-11-20T08:37:23.377Z,92807.19
2023-11-20T08:39:50.969Z,92807.97
2023-11-20T08:42:19.495Z,92796.00
2023-11-20T08:44:46.784Z,92804.81
2023-11-20T08:47:14.028Z,92802.53
2023-11-20T08:49:43.702Z,92808.31
2023-11-20T08:52:11.451Z,92801.00
2023-11-20T08:54:41.823Z,92806.38
2023-11-20T08:57:09.413Z,92808.69
2023-11-20T08:59:37.076Z,92816.75
2023-11-20T09:02:05.636Z,92804.88
2023-11-20T09:04:33.396Z,92824.47
2023-11-20T09:07:00.944Z,92812.94
2023-11-20T09:09:28.288Z,92806.78
2023-11-20T09:11:57.564Z,92815.63
2023-11-20T09:14:24.906Z,92818.31
2023-11-20T09:16:52.320Z,92826.34
2023-11-20T09:19:19.874Z,92818.28
2023-11-20T09:21:47.502Z,92820.22
2023-11-20T09:24:15.296Z,92817.53
2023-11-20T09:26:43.001Z,92820.59
2023-11-20T09:29:12.169Z,92822.94
2023-11-20T09:31:39.468Z,92816.78
2023-11-20T09:34:07.671Z,92813.72
2023-11-20T09:36:35.397Z,92809.91
2023-11-20T09:39:02.770Z,92817.19
2023-11-20T09:41:38.802Z,92805.25
2023-11-20T09:44:08.475Z,92807.22
2023-11-20T09:46:40.769Z,92806.78
2023-11-20T09:49:09.952Z,92812.19
2023-11-20T09:51:38.392Z,92802.97
2023-11-20T09:54:09.776Z,92795.28
2023-11-20T09:56:38.079Z,92798.72
2023-11-20T09:59:05.604Z,92804.50
2023-11-20T10:01:34.546Z,92799.88
2023-11-20T10:04:04.861Z,92811.78
2023-11-20T10:06:36.771Z,92813.72
2023-11-20T10:09:06.364Z,92805.25
2023-11-20T10:11:34.638Z,92808.69
2023-11-20T10:14:01.944Z,92810.63
2023-11-20T10:16:36.007Z,92799.44
2023-11-20T10:19:06.051Z,92808.69
2023-11-20T10:21:34.298Z,92792.53
2023-11-20T10:24:02.583Z,92795.25
2023-11-20T10:26:29.965Z,92795.22
2023-11-20T10:28:58.705Z,92798.22
2023-11-20T10:31:28.873Z,92799.31
2023-11-20T10:34:08.370Z,92796.75
2023-11-20T10:36:36.757Z,92796.00
2023-11-20T10:39:05.610Z,92798.31
2023-11-20T10:41:35.957Z,92792.16
2023-11-20T10:44:03.666Z,92792.94
2023-11-20T10:46:31.404Z,92786.78
2023-11-20T10:49:08.583Z,92803.69
2023-11-20T10:51:37.063Z,92789.75
2023-11-20T10:54:12.864Z,92785.88
2023-11-20T10:56:44.083Z,92783.91
2023-11-20T10:59:16.165Z,92781.13
2023-11-20T11:01:44.768Z,92770.38
2023-11-20T11:04:15.295Z,92772.59
2023-11-20T11:06:47.301Z,92771.00
2023-11-20T11:09:19.401Z,92780.47
2023-11-20T11:11:50.558Z,92783.91
2023-11-20T11:14:18.138Z,92765.97
2023-11-20T11:16:54.856Z,92763.69
2023-11-20T11:19:36.120Z,92778.72
2023-11-20T11:22:11.842Z,92776.50
2023-11-20T11:24:47.680Z,92770.41
2023-11-20T11:27:20.901Z,92769.25
2023-11-20T11:29:57.926Z,92766.88
2023-11-20T11:32:58.387Z,92774.53
2023-11-20T11:35:55.058Z,92757.25
2023-11-20T11:38:37.323Z,92751.16
2023-11-20T11:41:46.758Z,92768.13
2023-11-20T11:44:24.958Z,92756.63
2023-11-20T11:46:52.713Z,92756.31
2023-11-20T11:49:21.748Z,92757.41
2023-11-20T11:51:52.870Z,92745.31
2023-11-20T11:54:21.236Z,92739.94
2023-11-20T11:57:02.541Z,92743.88
2023-11-20T11:59:38.483Z,92745.06
2023-11-20T12:02:06.884Z,92744.34
2023-11-20T12:05:09.295Z,92744.72
2023-11-20T12:07:59.708Z,92737.44
2023-11-20T12:10:51.746Z,92735.88
2023-11-20T12:13:21.104Z,92739.31
2023-11-20T12:15:53.106Z,92730.81
2023-11-20T12:18:25.139Z,92722.75
2023-11-20T12:21:06.843Z,92727.50
2023-11-20T12:23:37.862Z,92724.81
2023-11-20T12:26:08.180Z,92721.34
2023-11-20T12:28:37.261Z,92731.44
2023-11-20T12:31:06.854Z,92736.78
2023-11-20T12:33:35.777Z,92723.72
2023-11-20T12:36:04.043Z,92712.22
2023-11-20T12:38:33.232Z,92724.47
2023-11-20T12:41:06.465Z,92719.16
2023-11-20T12:43:37.559Z,92721.06
2023-11-20T12:46:06.610Z,92710.28
2023-11-20T12:48:36.973Z,92710.31
2023-11-20T12:51:07.649Z,92706.03
2023-11-20T12:53:39.297Z,92703.78
2023-11-20T12:56:10.773Z,92701.41
2023-11-20T12:58:41.570Z,92688.75
2023-11-20T13:01:09.452Z,92712.56
2023-11-20T13:03:37.458Z,92691.47
2023-11-20T13:06:11.050Z,92706.84
2023-11-20T13:08:39.313Z,92717.63
2023-11-20T13:11:12.952Z,92689.19
2023-11-20T13:13:46.071Z,92683.03
2023-11-20T13:16:19.528Z,92702.97
2023-11-20T13:18:49.453Z,92693.03
2023-11-20T13:21:22.460Z,92704.53
2023-11-20T13:24:01.059Z,92700.31
2023-11-20T13:26:32.519Z,92697.63
2023-11-20T13:29:00.854Z,92708.38
2023-11-20T13:31:35.933Z,92705.28
2023-11-20T13:34:07.997Z,92701.16
2023-11-20T13:36:38.716Z,92704.94
2023-11-20T13:39:09.407Z,92708.75
2023-11-20T13:41:38.660Z,92714.53
2023-11-20T13:44:06.553Z,92713.78
2023-11-20T13:46:38.054Z,92720.28
2023-11-20T13:49:05.851Z,92709.91
2023-11-20T13:51:33.759Z,92718.81
2023-11-20T13:54:01.012Z,92717.25
2023-11-20T13:56:28.744Z,92712.28
2023-11-20T13:59:00.649Z,92713.06
2023-11-20T14:01:28.474Z,92721.97
2023-11-20T14:03:58.513Z,92717.41
2023-11-20T14:06:26.799Z,92716.19
2023-11-20T14:08:54.128Z,92714.59
2023-11-20T14:11:21.644Z,92714.59
2023-11-20T14:13:51.715Z,92720.00
2023-11-20T14:16:23.366Z,92736.47
2023-11-20T14:18:51.070Z,92736.81
2023-11-20T14:21:19.783Z,92738.28
2023-11-20T14:23:47.019Z,92734.88
2023-11-20T14:26:29.270Z,92709.69
2023-11-20T14:29:01.980Z,92726.91
2023-11-20T14:31:32.282Z,92736.06
2023-11-20T14:34:00.234Z,92735.28
2023-11-20T14:36:28.048Z,92733.75
2023-11-20T14:38:58.127Z,92733.63
2023-11-20T14:41:25.661Z,92725.56
2023-11-20T14:43:53.029Z,92731.25
2023-11-20T14:46:20.734Z,92731.69
2023-11-20T14:48:49.532Z,92730.13
2023-11-20T14:51:20.489Z,92739.41
2023-11-20T14:53:48.194Z,92743.72
2023-11-20T14:56:17.021Z,92739.72
2023-11-20T14:58:44.427Z,92730.91
2023-11-20T15:01:12.407Z,92739.06
2023-11-20T15:03:42.943Z,92747.50
2023-11-20T15:06:14.739Z,92729.56
2023-11-20T15:08:43.317Z,92739.56
2023-11-20T15:11:10.807Z,92731.53
2023-11-20T15:13:39.317Z,92736.50
2023-11-20T15:16:07.994Z,92726.91
2023-11-20T15:18:37.965Z,92727.69
2023-11-20T15:21:08.505Z,92725.41
2023-11-20T15:23:37.252Z,92730.03
2023-11-20T15:26:05.835Z,92728.84
2023-11-20T15:28:33.180Z,92736.91
2023-11-20T15:31:00.765Z,92731.53
2023-11-20T15:33:28.069Z,92736.91
2023-11-20T15:35:55.991Z,92741.50
2023-11-20T15:38:23.631Z,92746.13
2023-11-20T15:40:52.171Z,92738.91
2023-11-20T15:43:19.947Z,92740.03
2023-11-20T15:45:51.038Z,92743.84
2023-11-20T15:48:20.822Z,92748.47
2023-11-20T15:50:48.100Z,92744.63
2023-11-20T15:53:15.276Z,92744.66
2023-11-20T15:55:42.704Z,92748.13
2023-11-20T15:58:11.510Z,92743.13
2023-11-20T16:00:38.770Z,92741.22
2023-11-20T16:03:06.784Z,92747.72
2023-11-20T16:05:34.069Z,92741.59
2023-11-20T16:08:01.692Z,92755.78
2023-11-20T16:10:28.938Z,92748.09
2023-11-20T16:12:56.227Z,92748.84
2023-11-20T16:15:24.762Z,92745.41
2023-11-20T16:17:52.077Z,92732.78
2023-11-20T16:20:19.393Z,92749.66
2023-11-20T16:22:46.913Z,92745.84
2023-11-20T16:25:14.671Z,92748.13
2023-11-20T16:27:41.974Z,92750.81
2023-11-20T16:30:10.660Z,92758.50
2023-11-20T16:32:39.633Z,92757.69
2023-11-20T16:35:07.728Z,92764.53
2023-11-20T16:37:35.000Z,92767.66
2023-11-20T16:40:02.629Z,92761.16
2023-11-20T16:42:30.568Z,92763.47
2023-11-20T16:44:58.345Z,92753.44
2023-11-20T16:47:26.170Z,92761.50
2023-11-20T16:49:54.832Z,92773.47
2023-11-20T16:52:23.416Z,92761.19
2023-11-20T16:54:50.738Z,92759.28
2023-11-20T16:57:18.223Z,92764.25
2023-11-20T16:59:46.336Z,92767.72
2023-11-20T17:02:13.651Z,92768.47
2023-11-20T17:04:42.912Z,92777.69
2023-11-20T17:07:11.875Z,92768.44
2023-11-20T17:09:39.159Z,92779.56
2023-11-20T17:12:07.644Z,92771.88
2023-11-20T17:14:35.052Z,92762.28
2023-11-20T17:17:05.249Z,92766.88
2023-11-20T17:19:32.891Z,92772.94
2023-11-20T17:22:00.651Z,92759.50
2023-11-20T17:24:29.169Z,92764.09
2023-11-20T17:26:56.380Z,92756.53
2023-11-20T17:29:23.625Z,92748.78
2023-11-20T17:31:52.497Z,92759.19
2023-11-20T17:34:19.972Z,92754.19
2023-11-20T17:36:47.287Z,92759.16
2023-11-20T17:39:17.089Z,92748.06
2023-11-20T17:41:45.988Z,92758.44
2023-11-20T17:44:14.120Z,92767.31
2023-11-20T17:46:43.455Z,92749.59
2023-11-20T17:49:13.544Z,92764.56
2023-11-20T17:51:41.060Z,92746.06
2023-11-20T17:54:08.339Z,92759.19
2023-11-20T17:56:40.824Z,92764.13
2023-11-20T17:59:09.522Z,92767.63
2023-11-20T18:01:36.844Z,92770.28
2023-11-20T18:04:04.629Z,92766.03
2023-11-20T18:06:33.603Z,92766.09
2023-11-20T18:09:01.613Z,92756.09
2023-11-20T18:11:29.196Z,92762.28
2023-11-20T18:13:56.746Z,92756.53
2023-11-20T18:16:26.533Z,92773.03
2023-11-20T18:18:53.923Z,92765.03
2023-11-20T18:21:22.176Z,92766.91
2023-11-20T18:23:49.501Z,92745.44
2023-11-20T18:26:17.021Z,92765.78
2023-11-20T18:28:44.653Z,92744.66
2023-11-20T18:31:13.353Z,92745.41
2023-11-20T18:33:42.414Z,92754.59
2023-11-20T18:36:15.312Z,92754.56
2023-11-20T18:38:43.743Z,92752.63
2023-11-20T18:41:11.597Z,92760.31
2023-11-20T18:43:39.252Z,92758.78
2023-11-20T18:46:06.595Z,92754.50
2023-11-20T18:48:36.050Z,92752.53
2023-11-20T18:51:05.043Z,92753.69
2023-11-20T18:53:34.067Z,92747.91
2023-11-20T18:56:02.484Z,92749.03
2023-11-20T18:58:29.819Z,92751.78
2023-11-20T19:00:57.135Z,92752.16
2023-11-20T19:03:26.235Z,92745.28
2023-11-20T19:05:53.934Z,92744.53
2023-11-20T19:08:22.383Z,92743.06
2023-11-20T19:10:49.990Z,92749.19
2023-11-20T19:13:17.426Z,92747.66
2023-11-20T19:15:44.882Z,92747.31
2023-11-20T19:18:14.119Z,92750.81
2023-11-20T19:20:41.654Z,92754.28
2023-11-20T19:23:09.235Z,92756.22
2023-11-20T19:25:39.295Z,92745.81
2023-11-20T19:28:10.140Z,92763.88
2023-11-20T19:30:39.500Z,92774.66
2023-11-20T19:33:10.983Z,92768.53
2023-11-20T19:35:39.119Z,92770.03
2023-11-20T19:38:09.537Z,92767.38
2023-11-20T19:40:38.276Z,92765.81
2023-11-20T19:43:06.986Z,92768.09
2023-11-20T19:45:34.813Z,92766.59
2023-11-20T19:48:02.500Z,92750.09
2023-11-20T19:50:30.045Z,92755.47
2023-11-20T19:52:58.314Z,92754.31
2023-11-20T19:55:25.491Z,92759.31
2023-11-20T19:57:54.881Z,92752.78
2023-11-20T20:00:23.473Z,92754.28
2023-11-20T20:02:52.911Z,92722.44
2023-11-20T20:05:20.427Z,92733.13
2023-11-20T20:07:48.862Z,92734.31
2023-11-20T20:10:16.637Z,92734.69
2023-11-20T20:12:44.699Z,92717.44
2023-11-20T20:15:14.477Z,92729.31
2023-11-20T20:17:42.071Z,92731.22
2023-11-20T20:20:11.987Z,92727.00
2023-11-20T20:22:39.674Z,92736.22
2023-11-20T20:25:10.673Z,92731.97
2023-11-20T20:27:37.991Z,92735.84
2023-11-20T20:30:08.040Z,92730.81
2023-11-20T20:32:37.034Z,92728.53
2023-11-20T20:35:05.661Z,92722.78
2023-11-20T20:37:39.441Z,92728.53
2023-11-20T20:40:08.936Z,92741.56
2023-11-20T20:42:36.572Z,92737.72
2023-11-20T20:45:05.281Z,92740.78
2023-11-20T20:47:33.082Z,92749.22
2023-11-20T20:50:01.923Z,92735.78
2023-11-20T20:52:29.492Z,92744.97
2023-11-20T20:55:00.500Z,92745.72
2023-11-20T20:57:29.287Z,92743.13
2023-11-20T20:59:58.438Z,92747.72
2023-11-20T21:02:27.846Z,92743.09
2023-11-20T21:04:55.143Z,92744.63
2023-11-20T21:07:24.212Z,92744.19
2023-11-20T21:09:51.581Z,92744.25
2023-11-20T21:12:18.930Z,92738.50
2023-11-20T21:14:46.094Z,92749.50
2023-11-20T21:17:14.248Z,92744.13
2023-11-20T21:19:41.708Z,92745.34
2023-11-20T21:22:10.131Z,92745.38
2023-11-20T21:24:38.725Z,92740.69
2023-11-20T21:27:06.119Z,92737.69
2023-11-20T21:29:33.527Z,92733.88
2023-11-20T21:32:01.397Z,92740.41
2023-11-20T21:34:29.565Z,92746.25
2023-11-20T21:36:57.021Z,92740.13
2023-11-20T21:39:26.546Z,92739.69
2023-11-20T21:41:55.221Z,92744.69
2023-11-20T21:44:22.421Z,92747.78
2023-11-20T21:46:50.517Z,92749.31
2023-11-20T21:49:17.770Z,92747.75
2023-11-20T21:51:44.886Z,92754.28
2023-11-20T21:54:13.174Z,92749.28
2023-11-20T21:56:41.353Z,92750.44
2023-11-20T21:59:11.487Z,92750.47
2023-11-20T22:01:38.935Z,92757.38
2023-11-20T22:04:06.406Z,92757.75
2023-11-20T22:06:34.463Z,92752.41
2023-11-20T22:09:02.852Z,92757.78
2023-11-20T22:11:29.986Z,92747.03
2023-11-20T22:13:57.158Z,92760.47
2023-11-20T22:16:25.708Z,92764.31
2023-11-20T22:18:53.255Z,92764.28
2023-11-20T22:21:20.702Z,92763.16
2023-11-20T22:23:47.864Z,92752.03
2023-11-20T22:26:15.185Z,92760.06
2023-11-20T22:28:42.531Z,92761.97
2023-11-20T22:31:09.784Z,92756.59
2023-11-20T22:33:38.790Z,92760.44
2023-11-20T22:36:09.342Z,92753.94
2023-11-20T22:38:36.429Z,92745.13
2023-11-20T22:41:07.029Z,92751.25
2023-11-20T22:43:34.092Z,92747.78
2023-11-20T22:46:02.169Z,92752.00
2023-11-20T22:48:29.854Z,92751.63
2023-11-20T22:51:00.279Z,92747.78
2023-11-20T22:53:27.576Z,92745.47
2023-11-20T22:55:55.150Z,92744.31
2023-11-20T22:58:22.527Z,92747.41
2023-11-20T23:00:50.409Z,92751.63
2023-11-20T23:03:17.869Z,92753.16
2023-11-20T23:05:45.345Z,92751.63
2023-11-20T23:08:14.877Z,92760.84
2023-11-20T23:10:43.394Z,92760.81
2023-11-20T23:13:10.725Z,92757.75
2023-11-20T23:15:38.585Z,92760.44
2023-11-20T23:18:06.228Z,92756.22
2023-11-20T23:20:34.132Z,92755.09
2023-11-20T23:23:01.536Z,92757.38
2023-11-20T23:25:30.228Z,92758.53
2023-11-20T23:27:57.519Z,92742.38
2023-11-20T23:30:26.828Z,92755.44
2023-11-20T23:32:54.038Z,92751.94
2023-11-20T23:35:21.199Z,92752.34
2023-11-20T23:37:48.396Z,92750.81
2023-11-20T23:40:16.571Z,92742.31
2023-11-20T23:42:46.081Z,92753.47
2023-11-20T23:45:14.967Z,92748.13
2023-11-20T23:47:42.922Z,92746.19
2023-11-20T23:50:11.148Z,92751.97
2023-11-20T23:52:38.553Z,92751.16
2023-11-20T23:55:06.975Z,92746.16
2023-11-20T23:57:34.369Z,92745.38
